Time;durP1;ratioP1;P1;durP2;ratioP2;P2;SDS_P1;SDS_P2;PMS_P1;PMS_P2;Temp;Humidity;BMP_temperature;BMP_pressure;BME280_temperature;BME280_humidity;BME280_pressure;Samples;Min_cycle;Max_cycle;Signal;HPM_P1;HPM_P2
2023/06/28 00:00:15;;;;;;;1.27;1.10;;;20.60;98.80;;;;;;5078795;28;20021;-74
2023/06/28 00:02:40;;;;;;;3.35;1.48;;;20.60;98.70;;;;;;5078440;28;20033;-74
2023/06/28 00:05:09;;;;;;;6.50;1.50;;;20.50;99.50;;;;;;5078861;28;20162;-74
2023/06/28 00:07:35;;;;;;;5.90;1.80;;;20.40;99.90;;;;;;5078760;28;20023;-74
2023/06/28 00:10:01;;;;;;;2.47;1.27;;;20.30;99.90;;;;;;5078412;28;20115;-74
2023/06/28 00:12:29;;;;;;;3.53;2.15;;;20.30;99.90;;;;;;5078783;28;20115;-74
2023/06/28 00:14:55;;;;;;;8.23;2.80;;;20.20;99.90;;;;;;5078487;28;20016;-74
2023/06/28 00:17:27;;;;;;;5.97;1.95;;;20.20;99.90;;;;;;5077884;28;20017;-74
2023/06/28 00:19:57;;;;;;;12.25;2.00;;;20.20;99.90;;;;;;5078232;28;20111;-74
2023/06/28 00:22:29;;;;;;;10.48;2.42;;;20.20;99.90;;;;;;5078220;28;20028;-74
2023/06/28 00:24:56;;;;;;;4.15;2.03;;;20.20;99.90;;;;;;5077861;28;20031;-74
2023/06/28 00:27:21;;;;;;;2.35;1.38;;;20.20;99.90;;;;;;5078281;28;20023;-74
2023/06/28 00:29:47;;;;;;;2.78;1.48;;;20.10;99.90;;;;;;5077817;28;20021;-74
2023/06/28 00:32:12;;;;;;;1.92;1.35;;;20.10;99.90;;;;;;5078155;28;20019;-74
2023/06/28 00:34:38;;;;;;;3.58;1.40;;;20.10;99.90;;;;;;5077624;28;20060;-74
2023/06/28 00:37:03;;;;;;;3.05;1.70;;;20.00;99.90;;;;;;5077547;28;20028;-74
2023/06/28 00:39:29;;;;;;;2.38;1.63;;;20.00;99.90;;;;;;5078384;28;20042;-74
2023/06/28 00:41:55;;;;;;;6.80;1.60;;;20.00;99.90;;;;;;5078538;28;20020;-74
2023/06/28 00:44:20;;;;;;;3.78;1.50;;;20.00;99.90;;;;;;5077425;28;20050;-74
2023/06/28 00:46:48;;;;;;;4.30;1.77;;;20.00;99.90;;;;;;5077844;28;20024;-74
2023/06/28 00:49:14;;;;;;;7.93;1.48;;;19.90;99.90;;;;;;5077392;28;20021;-74
2023/06/28 00:51:40;;;;;;;4.13;1.30;;;19.90;99.90;;;;;;5077671;28;20017;-74
2023/06/28 00:54:06;;;;;;;4.80;1.90;;;19.80;99.90;;;;;;5077425;28;20020;-74
2023/06/28 00:56:31;;;;;;;3.38;1.65;;;19.80;99.90;;;;;;5077727;28;20028;-74
2023/06/28 00:58:57;;;;;;;8.30;1.40;;;19.70;99.90;;;;;;5077218;28;20028;-74
2023/06/28 01:01:23;;;;;;;2.85;1.30;;;19.70;99.90;;;;;;5077900;28;20028;-74
2023/06/28 01:03:50;;;;;;;4.95;1.63;;;19.60;99.90;;;;;;5076823;28;20032;-74
2023/06/28 01:06:17;;;;;;;3.28;1.30;;;19.50;99.90;;;;;;5077293;28;20031;-74
2023/06/28 01:08:44;;;;;;;2.88;1.42;;;19.50;99.90;;;;;;5077335;28;20016;-74
2023/06/28 01:11:10;;;;;;;9.43;1.73;;;19.50;99.90;;;;;;5076973;28;20020;-74
2023/06/28 01:13:37;;;;;;;4.60;1.20;;;19.50;99.90;;;;;;5077552;28;20043;-74
2023/06/28 01:16:04;;;;;;;6.07;1.67;;;19.40;99.90;;;;;;5077045;28;20060;-74
2023/06/28 01:18:33;;;;;;;2.67;1.20;;;19.30;99.90;;;;;;5076078;28;20024;-75
2023/06/28 01:21:04;;;;;;;4.50;1.60;;;19.30;99.90;;;;;;5076976;28;20111;-74
2023/06/28 01:23:30;;;;;;;1.80;1.30;;;19.30;99.90;;;;;;5077497;28;20025;-74
2023/06/28 01:25:56;;;;;;;2.28;1.50;;;19.20;99.90;;;;;;5077092;28;20035;-74
2023/06/28 01:28:22;;;;;;;4.22;1.60;;;19.20;99.90;;;;;;5076588;28;20024;-74
2023/06/28 01:30:52;;;;;;;3.28;1.20;;;19.00;99.90;;;;;;5077775;28;20028;-74
2023/06/28 01:33:18;;;;;;;2.90;1.30;;;18.70;99.90;;;;;;5077441;28;20025;-75
2023/06/28 01:35:44;;;;;;;3.03;1.70;;;18.60;99.90;;;;;;5076794;28;20031;-74
2023/06/28 01:38:10;;;;;;;8.63;1.75;;;18.40;99.90;;;;;;5076607;28;20021;-74
2023/06/28 01:40:38;;;;;;;4.85;1.40;;;18.40;99.90;;;;;;5077302;28;20127;-74
2023/06/28 01:43:06;;;;;;;3.28;1.52;;;18.40;99.90;;;;;;5077031;28;20024;-74
2023/06/28 01:45:33;;;;;;;3.38;1.42;;;18.40;99.90;;;;;;5076556;28;20025;-74
2023/06/28 01:47:58;;;;;;;3.95;1.50;;;18.40;99.90;;;;;;5076653;28;20054;-74
2023/06/28 01:50:25;;;;;;;2.97;1.20;;;18.40;99.90;;;;;;5076435;28;20021;-74
2023/06/28 01:52:50;;;;;;;3.42;1.65;;;18.40;99.90;;;;;;5076195;28;20035;-74
2023/06/28 01:55:16;;;;;;;2.75;1.27;;;18.40;99.90;;;;;;5076617;28;20028;-74
2023/06/28 01:57:42;;;;;;;7.65;1.55;;;18.50;99.90;;;;;;5077041;28;20025;-74
2023/06/28 02:00:08;;;;;;;8.18;2.40;;;18.60;99.90;;;;;;5076243;28;20024;-74
2023/06/28 02:02:35;;;;;;;4.43;1.40;;;18.60;99.90;;;;;;5076108;28;20025;-74
2023/06/28 02:05:01;;;;;;;2.58;1.35;;;18.50;99.90;;;;;;5076172;28;20021;-74
2023/06/28 02:07:26;;;;;;;3.25;1.45;;;18.40;99.90;;;;;;5077004;28;20025;-74
2023/06/28 02:09:52;;;;;;;2.28;1.30;;;18.40;99.90;;;;;;5076876;28;20028;-74
2023/06/28 02:12:17;;;;;;;8.00;1.58;;;18.40;99.90;;;;;;5076455;28;20032;-74
2023/06/28 02:14:43;;;;;;;2.88;1.40;;;18.40;99.90;;;;;;5076276;28;20021;-74
2023/06/28 02:17:13;;;;;;;2.63;1.27;;;18.40;99.90;;;;;;5075955;28;20031;-74
2023/06/28 02:19:39;;;;;;;6.88;2.05;;;18.30;99.90;;;;;;5076177;28;20138;-74
2023/06/28 02:22:05;;;;;;;3.00;1.30;;;18.20;99.90;;;;;;5077012;28;20029;-74
2023/06/28 02:24:31;;;;;;;3.80;1.48;;;18.30;99.90;;;;;;5075850;28;20021;-74
2023/06/28 02:26:56;;;;;;;2.15;1.73;;;18.30;99.90;;;;;;5076967;28;20032;-74
2023/06/28 02:29:22;;;;;;;4.28;1.60;;;18.40;99.90;;;;;;5077466;28;20020;-74
2023/06/28 02:31:48;;;;;;;6.43;1.83;;;18.30;99.90;;;;;;5080132;28;20024;-74
2023/06/28 02:34:14;;;;;;;2.67;1.60;;;18.20;99.90;;;;;;5080640;28;20033;-74
2023/06/28 02:36:39;;;;;;;3.22;1.42;;;18.20;99.90;;;;;;5080768;28;20032;-74
2023/06/28 02:39:05;;;;;;;3.45;1.70;;;18.20;99.90;;;;;;5080835;28;20029;-74
2023/06/28 02:41:30;;;;;;;3.92;1.85;;;18.20;99.90;;;;;;5079868;28;20039;-74
2023/06/28 02:43:56;;;;;;;3.05;1.80;;;18.20;99.90;;;;;;5079668;28;20094;-74
2023/06/28 02:46:21;;;;;;;3.85;1.88;;;18.20;99.90;;;;;;5079926;28;20039;-74
2023/06/28 02:48:47;;;;;;;5.18;1.73;;;18.20;99.90;;;;;;5080230;28;20047;-74
2023/06/28 02:51:12;;;;;;;4.97;1.50;;;18.10;99.90;;;;;;5080508;28;20025;-74
2023/06/28 02:53:38;;;;;;;4.72;1.80;;;18.00;99.90;;;;;;5079650;28;20020;-74
2023/06/28 02:56:04;;;;;;;3.17;1.77;;;18.00;99.90;;;;;;5079661;28;20021;-75
2023/06/28 02:58:29;;;;;;;5.10;2.00;;;18.00;99.90;;;;;;5079344;28;20024;-74
2023/06/28 03:00:57;;;;;;;8.68;1.80;;;18.00;99.90;;;;;;5079919;28;20040;-74
2023/06/28 03:03:23;;;;;;;5.72;1.42;;;18.20;99.90;;;;;;5079239;28;20025;-74
2023/06/28 03:05:49;;;;;;;4.85;3.03;;;18.10;99.90;;;;;;5079526;28;20073;-74
2023/06/28 03:08:14;;;;;;;4.03;1.80;;;18.10;99.90;;;;;;5080288;28;20104;-75
2023/06/28 03:10:40;;;;;;;4.97;2.10;;;18.10;99.90;;;;;;5080230;28;20024;-74
2023/06/28 03:13:06;;;;;;;2.28;1.63;;;18.20;99.90;;;;;;5080258;28;20043;-74
2023/06/28 03:15:31;;;;;;;4.00;1.63;;;18.20;99.90;;;;;;5079117;28;20051;-75
2023/06/28 03:17:57;;;;;;;5.40;1.83;;;18.30;99.90;;;;;;5079184;28;20055;-74
2023/06/28 03:20:23;;;;;;;4.60;1.63;;;18.20;99.90;;;;;;5079351;28;20087;-74
2023/06/28 03:22:49;;;;;;;3.40;1.50;;;18.10;99.90;;;;;;5080220;28;20021;-74
2023/06/28 03:25:15;;;;;;;6.22;1.40;;;18.00;99.90;;;;;;5079865;28;20047;-74
2023/06/28 03:27:41;;;;;;;3.03;1.40;;;17.90;99.90;;;;;;5079240;28;20025;-74
2023/06/28 03:30:07;;;;;;;4.45;1.63;;;17.90;99.90;;;;;;5079061;28;20032;-74
2023/06/28 03:32:32;;;;;;;6.47;1.40;;;18.00;99.90;;;;;;5080848;28;20036;-74
2023/06/28 03:34:58;;;;;;;2.13;1.20;;;18.10;99.90;;;;;;5079619;28;20029;-74
2023/06/28 03:37:23;;;;;;;5.22;1.55;;;18.20;99.90;;;;;;5078979;28;20123;-74
2023/06/28 03:39:49;;;;;;;6.63;1.48;;;18.30;99.90;;;;;;5079013;28;20020;-74
2023/06/28 03:42:14;;;;;;;5.85;1.77;;;18.30;99.90;;;;;;5078482;28;20029;-74
2023/06/28 03:44:40;;;;;;;6.97;1.92;;;18.20;99.90;;;;;;5079515;28;20021;-74
2023/06/28 03:47:06;;;;;;;2.70;1.38;;;17.90;99.90;;;;;;5078710;28;20084;-74
2023/06/28 03:49:31;;;;;;;3.55;1.48;;;17.80;99.90;;;;;;5078752;28;20058;-74
2023/06/28 03:51:57;;;;;;;5.13;1.33;;;17.70;99.90;;;;;;5079367;28;20028;-74
2023/06/28 03:54:22;;;;;;;4.28;1.80;;;17.90;99.90;;;;;;5079443;28;20027;-74
2023/06/28 03:56:49;;;;;;;3.67;1.80;;;18.00;99.90;;;;;;5078507;28;20127;-74
2023/06/28 03:59:14;;;;;;;3.05;1.73;;;18.00;99.90;;;;;;5078445;28;20025;-74
2023/06/28 04:01:40;;;;;;;5.78;2.00;;;18.10;99.90;;;;;;5079492;28;20021;-75
2023/06/28 04:04:05;;;;;;;10.10;1.80;;;18.20;99.90;;;;;;5079107;28;20024;-75
2023/06/28 04:06:31;;;;;;;3.97;1.60;;;18.40;99.90;;;;;;5079433;28;20095;-73
2023/06/28 04:08:56;;;;;;;4.22;1.75;;;18.30;99.90;;;;;;5078308;28;20021;-74
2023/06/28 04:11:22;;;;;;;8.35;2.00;;;18.30;99.90;;;;;;5078233;28;20028;-74
2023/06/28 04:13:47;;;;;;;4.05;2.08;;;18.20;99.90;;;;;;5078192;28;20042;-75
2023/06/28 04:16:13;;;;;;;5.55;2.33;;;18.20;99.90;;;;;;5078890;28;20093;-74
2023/06/28 04:18:38;;;;;;;2.45;1.70;;;18.30;99.90;;;;;;5078115;28;20024;-74
2023/06/28 04:21:04;;;;;;;3.83;1.95;;;18.30;99.90;;;;;;5078021;28;20113;-74
2023/06/28 04:23:29;;;;;;;3.85;1.85;;;18.30;99.90;;;;;;5077868;28;20067;-74
2023/06/28 04:25:57;;;;;;;6.38;1.75;;;18.40;99.90;;;;;;5078133;28;20021;-74
2023/06/28 04:28:23;;;;;;;9.48;2.13;;;18.40;99.90;;;;;;5077706;28;20020;-74
2023/06/28 04:30:49;;;;;;;4.45;1.40;;;18.30;99.90;;;;;;5078692;28;20028;-74
2023/06/28 04:33:18;;;;;;;2.42;1.67;;;18.20;99.90;;;;;;5078844;28;20032;-75
2023/06/28 04:35:46;;;;;;;3.78;1.77;;;18.20;99.90;;;;;;5078802;28;20052;-74
2023/06/28 04:38:13;;;;;;;4.95;1.80;;;18.20;99.90;;;;;;5078450;28;20021;-74
2023/06/28 04:40:39;;;;;;;2.83;1.65;;;18.20;99.90;;;;;;5077616;28;20024;-74
2023/06/28 04:43:10;;;;;;;4.38;1.73;;;18.40;99.90;;;;;;5078584;28;20071;-74
2023/06/28 04:45:39;;;;;;;6.03;1.70;;;18.40;99.90;;;;;;5077812;28;20020;-74
2023/06/28 04:48:06;;;;;;;6.88;1.95;;;18.40;99.90;;;;;;5077433;28;20028;-74
2023/06/28 04:50:36;;;;;;;9.93;1.90;;;18.40;99.90;;;;;;5078160;28;20055;-74
2023/06/28 04:53:05;;;;;;;4.90;1.83;;;18.50;99.90;;;;;;5076958;28;20020;-74
2023/06/28 04:55:34;;;;;;;4.40;1.95;;;18.60;99.90;;;;;;5077566;28;20081;-74
2023/06/28 04:58:05;;;;;;;6.15;1.92;;;18.60;99.90;;;;;;5077981;28;20047;-74
2023/06/28 05:00:32;;;;;;;5.25;1.60;;;18.70;99.90;;;;;;5077249;28;20024;-74
2023/06/28 05:03:00;;;;;;;2.90;1.75;;;18.80;99.90;;;;;;5076986;28;20036;-72
2023/06/28 05:05:26;;;;;;;3.70;2.03;;;18.80;99.90;;;;;;5077907;28;20013;-73
2023/06/28 05:07:53;;;;;;;6.20;2.10;;;18.60;99.90;;;;;;5077051;28;20021;-73
2023/06/28 05:10:19;;;;;;;9.50;2.05;;;18.60;99.90;;;;;;5077043;28;20071;-73
2023/06/28 05:12:44;;;;;;;6.50;2.10;;;18.60;99.90;;;;;;5076889;28;20021;-73
2023/06/28 05:15:10;;;;;;;8.27;1.92;;;18.60;99.90;;;;;;5077220;28;20020;-73
2023/06/28 05:17:35;;;;;;;4.40;1.75;;;18.60;99.90;;;;;;5077073;28;20090;-73
2023/06/28 05:20:01;;;;;;;14.43;2.70;;;18.60;99.90;;;;;;5076827;28;20024;-73
2023/06/28 05:22:27;;;;;;;5.35;1.80;;;18.60;99.90;;;;;;5077381;28;20116;-73
2023/06/28 05:24:53;;;;;;;3.47;1.80;;;18.60;99.90;;;;;;5077670;28;20090;-73
2023/06/28 05:27:19;;;;;;;7.18;1.98;;;18.60;99.90;;;;;;5077593;28;20020;-73
2023/06/28 05:29:45;;;;;;;7.55;2.08;;;18.60;99.90;;;;;;5076908;28;20142;-73
2023/06/28 05:32:13;;;;;;;5.55;1.77;;;18.60;99.90;;;;;;5077027;28;20020;-73
2023/06/28 05:34:39;;;;;;;6.35;2.17;;;18.70;99.90;;;;;;5077781;28;20119;-73
2023/06/28 05:37:05;;;;;;;11.40;2.35;;;18.70;99.90;;;;;;5076967;28;20062;-73
2023/06/28 05:39:31;;;;;;;3.83;2.08;;;18.80;99.90;;;;;;5076868;28;20035;-73
2023/06/28 05:41:56;;;;;;;9.48;1.98;;;18.80;99.90;;;;;;5076607;28;20128;-73
2023/06/28 05:44:22;;;;;;;6.10;1.70;;;18.90;99.90;;;;;;5076542;28;20029;-73
2023/06/28 05:46:47;;;;;;;5.65;2.22;;;18.90;99.90;;;;;;5076431;28;20023;-73
2023/06/28 05:49:13;;;;;;;5.10;2.15;;;18.90;99.90;;;;;;5076236;28;20024;-74
2023/06/28 05:51:39;;;;;;;6.20;2.50;;;18.90;99.90;;;;;;5076263;28;20050;-75
2023/06/28 05:54:07;;;;;;;6.18;1.90;;;19.00;99.90;;;;;;5077100;28;20025;-74
2023/06/28 05:56:32;;;;;;;7.45;2.10;;;19.00;99.90;;;;;;5076995;28;20024;-74
2023/06/28 05:58:58;;;;;;;4.40;2.05;;;19.00;99.90;;;;;;5076383;28;20077;-74
2023/06/28 06:01:24;;;;;;;4.18;1.70;;;19.00;99.90;;;;;;5078856;28;20054;-74
2023/06/28 06:03:50;;;;;;;7.35;2.00;;;19.10;99.90;;;;;;5076801;28;20052;-74
2023/06/28 06:06:17;;;;;;;7.50;2.15;;;18.90;99.90;;;;;;5076230;28;20078;-74
2023/06/28 06:08:43;;;;;;;3.30;2.00;;;18.90;99.90;;;;;;5076879;28;20025;-74
2023/06/28 06:11:08;;;;;;;3.90;1.90;;;18.90;99.90;;;;;;5076536;28;20046;-74
2023/06/28 06:13:34;;;;;;;7.47;1.60;;;19.00;99.90;;;;;;5076497;28;20039;-74
2023/06/28 06:16:01;;;;;;;4.78;1.65;;;19.00;99.90;;;;;;5076534;28;20084;-74
2023/06/28 06:18:26;;;;;;;6.95;2.15;;;19.00;99.90;;;;;;5076040;28;20119;-74
2023/06/28 06:20:52;;;;;;;5.93;1.90;;;19.10;99.90;;;;;;5075994;28;20060;-74
2023/06/28 06:23:18;;;;;;;10.32;2.08;;;19.20;99.90;;;;;;5076118;28;20024;-74
2023/06/28 06:25:44;;;;;;;4.68;1.85;;;19.10;99.90;;;;;;5076026;28;20017;-74
2023/06/28 06:28:10;;;;;;;5.90;2.00;;;19.20;99.90;;;;;;5076788;28;20016;-74
2023/06/28 06:30:35;;;;;;;7.22;1.75;;;19.10;99.90;;;;;;5076252;28;20020;-74
2023/06/28 06:33:01;;;;;;;7.72;1.92;;;19.20;99.90;;;;;;5076084;28;20056;-74
2023/06/28 06:35:27;;;;;;;5.18;2.65;;;19.20;99.90;;;;;;5075734;28;20075;-73
2023/06/28 06:37:53;;;;;;;6.55;2.30;;;19.40;99.90;;;;;;5075821;28;20032;-74
2023/06/28 06:40:20;;;;;;;6.93;1.63;;;19.50;99.90;;;;;;5075902;28;20031;-74
2023/06/28 06:42:46;;;;;;;9.05;1.83;;;19.50;99.90;;;;;;5076630;28;20024;-74
2023/06/28 06:45:16;;;;;;;4.43;1.40;;;19.60;99.90;;;;;;5075942;28;20051;-74
2023/06/28 06:47:43;;;;;;;7.65;2.17;;;19.70;99.90;;;;;;5076727;28;20103;-74
2023/06/28 06:50:09;;;;;;;4.05;1.65;;;19.70;99.90;;;;;;5075909;28;20027;-74
2023/06/28 06:52:36;;;;;;;4.55;1.80;;;19.80;99.90;;;;;;5076157;28;20060;-74
2023/06/28 06:55:02;;;;;;;5.95;1.65;;;19.80;99.90;;;;;;5075940;28;20052;-74
2023/06/28 06:57:27;;;;;;;3.03;1.65;;;19.80;99.90;;;;;;5075724;28;20035;-74
2023/06/28 06:59:53;;;;;;;5.25;1.42;;;19.90;99.90;;;;;;5076057;28;20027;-74
2023/06/28 07:02:21;;;;;;;7.18;2.08;;;20.00;99.90;;;;;;5075905;28;20020;-74
2023/06/28 07:04:46;;;;;;;4.63;1.50;;;20.00;99.90;;;;;;5075553;28;20067;-74
2023/06/28 07:07:12;;;;;;;7.43;1.85;;;19.80;99.90;;;;;;5075473;28;20048;-74
2023/06/28 07:09:37;;;;;;;4.95;1.50;;;19.90;99.90;;;;;;5076597;28;20032;-74
2023/06/28 07:12:03;;;;;;;2.75;1.67;;;19.90;99.90;;;;;;5075547;28;20027;-74
2023/06/28 07:14:29;;;;;;;6.20;1.90;;;19.90;99.90;;;;;;5075379;28;20097;-74
2023/06/28 07:16:54;;;;;;;4.18;1.80;;;20.10;99.90;;;;;;5078134;28;20075;-74
2023/06/28 07:19:20;;;;;;;6.93;1.90;;;20.20;99.90;;;;;;5079390;28;20032;-74
2023/06/28 07:21:45;;;;;;;5.43;1.52;;;20.20;99.90;;;;;;5079307;28;20036;-73
2023/06/28 07:24:11;;;;;;;7.63;1.92;;;20.40;99.90;;;;;;5079480;28;20029;-73
2023/06/28 07:26:36;;;;;;;7.15;1.73;;;20.50;99.90;;;;;;5078956;28;20048;-74
2023/06/28 07:29:02;;;;;;;7.07;1.98;;;20.70;99.90;;;;;;5079992;28;20025;-74
2023/06/28 07:31:28;;;;;;;8.80;1.95;;;20.90;99.90;;;;;;5079595;28;20025;-73
2023/06/28 07:33:53;;;;;;;8.52;2.22;;;20.70;99.90;;;;;;5079094;28;20037;-72
2023/06/28 07:36:19;;;;;;;11.75;3.25;;;20.50;99.90;;;;;;5079648;28;20028;-71
2023/06/28 07:38:45;;;;;;;4.63;1.67;;;20.30;99.90;;;;;;5079218;28;20021;-72
2023/06/28 07:41:10;;;;;;;8.77;1.92;;;20.00;99.90;;;;;;5079200;28;20023;-72
2023/06/28 07:43:36;;;;;;;5.57;2.17;;;19.80;99.90;;;;;;5078569;28;20035;-72
2023/06/28 07:46:03;;;;;;;3.17;1.50;;;20.00;99.90;;;;;;5079096;28;20085;-73
2023/06/28 07:48:29;;;;;;;5.60;2.10;;;20.10;99.90;;;;;;5078982;28;20020;-73
2023/06/28 07:50:55;;;;;;;7.57;2.50;;;20.60;99.90;;;;;;5079148;28;20046;-73
2023/06/28 07:53:21;;;;;;;5.45;1.63;;;20.70;99.90;;;;;;5079023;28;20064;-72
2023/06/28 07:55:46;;;;;;;3.85;1.63;;;20.80;99.90;;;;;;5079619;28;20048;-73
2023/06/28 07:58:12;;;;;;;6.40;1.70;;;20.90;99.90;;;;;;5078892;28;20024;-71
2023/06/28 08:00:37;;;;;;;8.30;2.65;;;20.90;99.90;;;;;;5078746;28;20035;-71
2023/06/28 08:03:03;;;;;;;9.13;1.83;;;20.60;99.90;;;;;;5078710;28;20017;-71
2023/06/28 08:05:29;;;;;;;7.55;1.88;;;20.40;99.90;;;;;;5078452;28;20051;-71
2023/06/28 08:07:55;;;;;;;8.40;2.88;;;20.30;99.90;;;;;;5078557;28;20028;-70
2023/06/28 08:10:25;;;;;;;7.32;2.20;;;20.40;99.90;;;;;;5078433;28;20024;-71
2023/06/28 08:12:51;;;;;;;6.93;2.15;;;20.30;99.90;;;;;;5079017;28;20031;-70
2023/06/28 08:15:18;;;;;;;12.38;2.08;;;20.20;99.90;;;;;;5078086;28;20030;-71
2023/06/28 08:17:43;;;;;;;5.70;1.83;;;20.20;99.90;;;;;;5078483;28;20027;-71
2023/06/28 08:20:09;;;;;;;5.22;1.98;;;20.20;99.90;;;;;;5078972;28;20107;-70
2023/06/28 08:22:35;;;;;;;8.07;2.45;;;20.10;99.90;;;;;;5078251;28;20070;-71
2023/06/28 08:25:00;;;;;;;6.43;1.92;;;20.30;99.90;;;;;;5078093;28;20017;-71
2023/06/28 08:27:26;;;;;;;7.50;2.30;;;20.40;99.90;;;;;;5077713;28;20039;-71
2023/06/28 08:29:51;;;;;;;7.60;2.53;;;20.50;99.90;;;;;;5078843;28;20030;-71
2023/06/28 08:32:17;;;;;;;6.82;2.25;;;20.50;99.90;;;;;;5078451;28;20027;-71
2023/06/28 08:34:42;;;;;;;3.85;1.50;;;20.50;99.90;;;;;;5078267;28;20055;-71
2023/06/28 08:37:08;;;;;;;6.03;1.83;;;20.70;99.90;;;;;;5078185;28;20176;-71
2023/06/28 08:39:36;;;;;;;5.18;1.95;;;21.00;99.90;;;;;;5078387;28;20029;-71
2023/06/28 08:42:02;;;;;;;5.18;2.00;;;21.50;99.90;;;;;;5077596;28;20032;-71
2023/06/28 08:44:31;;;;;;;4.80;1.58;;;21.80;99.90;;;;;;5077572;28;20028;-71
2023/06/28 08:46:58;;;;;;;4.70;1.73;;;22.00;99.90;;;;;;5078217;28;20020;-71
2023/06/28 08:49:24;;;;;;;2.85;1.30;;;22.10;99.90;;;;;;5078343;28;20063;-71
2023/06/28 08:51:50;;;;;;;4.55;1.50;;;22.00;99.90;;;;;;5078022;28;20115;-71
2023/06/28 08:54:15;;;;;;;6.38;1.90;;;21.70;99.90;;;;;;5077707;28;20067;-72
2023/06/28 08:56:42;;;;;;;7.45;1.50;;;21.90;99.90;;;;;;5078039;28;20032;-72
2023/06/28 08:59:08;;;;;;;6.35;1.95;;;22.10;99.90;;;;;;5077565;28;20028;-72
2023/06/28 09:01:35;;;;;;;4.25;2.03;;;21.90;99.90;;;;;;5077312;28;20025;-72
2023/06/28 09:04:02;;;;;;;4.55;1.50;;;21.80;99.90;;;;;;5076984;28;20031;-73
2023/06/28 09:06:28;;;;;;;6.10;2.00;;;22.20;99.90;;;;;;5077968;28;20082;-73
2023/06/28 09:08:55;;;;;;;8.23;1.75;;;22.50;99.90;;;;;;5077195;28;20047;-75
2023/06/28 09:11:21;;;;;;;12.38;2.13;;;22.70;99.90;;;;;;5076919;28;20021;-73
2023/06/28 09:13:47;;;;;;;2.75;1.80;;;22.50;99.90;;;;;;5077385;28;20092;-73
2023/06/28 09:16:13;;;;;;;3.70;2.25;;;22.80;99.90;;;;;;5077166;28;20021;-73
2023/06/28 09:18:38;;;;;;;4.32;1.63;;;22.60;99.90;;;;;;5077156;28;20042;-73
2023/06/28 09:21:04;;;;;;;6.35;2.00;;;22.80;99.90;;;;;;5077653;28;20024;-76
2023/06/28 09:23:32;;;;;;;6.28;1.92;;;22.80;99.90;;;;;;5077313;28;20032;-77
2023/06/28 09:25:58;;;;;;;5.50;2.15;;;22.70;99.90;;;;;;5080494;28;20021;-76
2023/06/28 09:28:34;;;;;;;5.50;1.88;;;22.60;99.90;;;;;;5079296;28;20017;-73
2023/06/28 09:31:00;;;;;;;5.90;1.90;;;22.90;99.90;;;;;;5077201;28;20027;-74
2023/06/28 09:33:26;;;;;;;5.72;1.67;;;22.80;99.90;;;;;;5077883;28;20046;-75
2023/06/28 09:35:54;;;;;;;4.03;1.80;;;22.60;99.90;;;;;;5078285;28;20029;-74
2023/06/28 09:38:21;;;;;;;5.90;2.22;;;22.70;99.90;;;;;;5076585;28;20104;-75
2023/06/28 09:40:59;;;;;;;5.97;2.05;;;22.50;99.90;;;;;;5076646;28;20020;-75
2023/06/28 09:43:31;;;;;;;6.95;2.20;;;22.30;99.90;;;;;;5077036;28;20024;-75
2023/06/28 09:45:56;;;;;;;2.08;1.75;;;22.40;99.90;;;;;;5076880;28;20042;-73
2023/06/28 09:48:24;;;;;;;8.75;2.58;;;22.70;99.90;;;;;;5077312;28;20043;-73
2023/06/28 09:50:50;;;;;;;4.82;1.60;;;22.80;99.90;;;;;;5077025;28;20024;-72
2023/06/28 09:53:19;;;;;;;10.18;1.70;;;22.60;99.90;;;;;;5077018;28;20028;-72
2023/06/28 09:55:47;;;;;;;6.63;2.20;;;22.70;99.90;;;;;;5076506;28;20089;-71
2023/06/28 09:58:14;;;;;;;8.50;1.70;;;22.30;99.90;;;;;;5077111;28;20031;-73
2023/06/28 10:00:42;;;;;;;5.70;1.83;;;22.50;99.90;;;;;;5077071;28;20025;-73
2023/06/28 10:03:09;;;;;;;5.22;1.40;;;22.50;99.90;;;;;;5076646;28;20032;-73
2023/06/28 10:05:40;;;;;;;4.25;1.52;;;22.40;99.90;;;;;;5076385;28;20025;-74
2023/06/28 10:08:11;;;;;;;3.75;2.05;;;22.40;99.90;;;;;;5077028;28;20031;-74
2023/06/28 10:10:38;;;;;;;2.90;1.83;;;22.80;99.90;;;;;;5076743;28;20024;-73
2023/06/28 10:13:08;;;;;;;3.80;1.63;;;23.00;99.90;;;;;;5076847;28;20024;-73
2023/06/28 10:15:43;;;;;;;3.55;1.63;;;22.90;99.90;;;;;;5076265;28;20058;-74
2023/06/28 10:18:09;;;;;;;3.28;1.40;;;23.10;99.90;;;;;;5076239;28;20056;-74
2023/06/28 10:20:37;;;;;;;6.82;1.50;;;23.10;99.90;;;;;;5075964;28;20040;-74
2023/06/28 10:23:05;;;;;;;3.45;1.58;;;23.10;99.90;;;;;;5076312;28;20115;-74
2023/06/28 10:25:32;;;;;;;4.22;1.40;;;23.30;99.90;;;;;;5076268;28;20043;-73
2023/06/28 10:27:58;;;;;;;3.45;1.67;;;23.50;99.90;;;;;;5076515;28;20111;-74
2023/06/28 10:30:24;;;;;;;2.55;1.60;;;23.40;99.90;;;;;;5076268;28;20179;-74
2023/06/28 10:32:51;;;;;;;6.82;1.65;;;23.30;99.90;;;;;;5076216;28;20040;-74
2023/06/28 10:35:17;;;;;;;4.65;1.85;;;23.40;99.90;;;;;;5097737;22;20090;-74
2023/06/28 10:37:42;;;;;;;7.55;1.67;;;23.30;99.90;;;;;;5075728;28;20025;-73
2023/06/28 10:40:09;;;;;;;6.25;1.67;;;23.60;99.90;;;;;;5076132;28;20119;-74
2023/06/28 10:42:41;;;;;;;5.22;2.20;;;23.70;99.90;;;;;;5076027;28;20021;-74
2023/06/28 10:45:10;;;;;;;4.22;1.60;;;23.90;99.90;;;;;;5075965;28;20035;-74
2023/06/28 10:47:49;;;;;;;4.05;1.63;;;24.00;99.90;;;;;;5075963;28;20119;-74
2023/06/28 10:50:20;;;;;;;7.28;2.00;;;24.20;99.90;;;;;;5077040;28;20099;-74
2023/06/28 10:52:57;;;;;;;3.97;1.50;;;24.50;99.90;;;;;;5080691;28;20029;-74
2023/06/28 10:55:33;;;;;;;5.60;1.70;;;24.20;99.90;;;;;;5079652;28;20025;-74
2023/06/28 10:58:07;;;;;;;7.95;2.25;;;24.30;99.90;;;;;;5079879;28;20115;-74
2023/06/28 11:00:41;;;;;;;5.00;2.13;;;24.60;99.90;;;;;;5079461;28;20020;-74
2023/06/28 11:03:07;;;;;;;3.95;2.13;;;24.50;99.90;;;;;;5079730;28;20047;-74
2023/06/28 11:05:38;;;;;;;7.45;2.60;;;24.40;99.90;;;;;;5079339;28;20016;-74
2023/06/28 11:08:17;;;;;;;4.47;1.88;;;24.30;99.90;;;;;;5079646;28;20023;-74
2023/06/28 11:10:45;;;;;;;4.43;2.03;;;24.00;99.90;;;;;;5080213;28;20107;-74
2023/06/28 11:13:13;;;;;;;8.93;2.10;;;23.80;99.90;;;;;;5080238;28;20093;-74
2023/06/28 11:15:45;;;;;;;4.97;1.63;;;23.70;99.90;;;;;;5079370;28;20115;-74
2023/06/28 11:18:21;;;;;;;4.72;2.08;;;23.70;99.90;;;;;;5080089;28;20024;-74
2023/06/28 11:20:51;;;;;;;3.15;1.80;;;23.90;99.90;;;;;;5080422;28;20081;-74
2023/06/28 11:23:37;;;;;;;7.57;2.60;;;24.40;99.90;;;;;;5081337;28;20028;-74
2023/06/28 11:26:04;;;;;;;3.35;1.60;;;24.90;99.90;;;;;;5078882;28;20027;-74
2023/06/28 11:28:32;;;;;;;2.40;2.03;;;25.30;99.90;;;;;;5078960;28;20058;-73
2023/06/28 11:31:22;;;;;;;6.50;1.58;;;25.50;99.90;;;;;;5079346;28;20049;-74
2023/06/28 11:33:48;;;;;;;4.55;1.63;;;25.60;99.70;;;;;;5079569;28;20059;-74
2023/06/28 11:36:15;;;;;;;5.72;1.67;;;25.80;98.70;;;;;;5079023;28;20032;-74
2023/06/28 11:38:45;;;;;;;5.30;2.00;;;25.90;98.00;;;;;;5079511;28;20024;-74
2023/06/28 11:41:14;;;;;;;4.25;1.90;;;26.10;99.10;;;;;;5079115;28;20075;-73
2023/06/28 11:43:39;;;;;;;5.07;1.92;;;27.10;97.60;;;;;;5079249;28;20036;-74
2023/06/28 11:46:06;;;;;;;6.25;1.92;;;27.40;95.70;;;;;;5079477;28;20021;-75
2023/06/28 11:48:31;;;;;;;4.47;1.52;;;27.90;94.50;;;;;;5078485;28;20078;-74
2023/06/28 11:50:57;;;;;;;6.38;1.40;;;28.50;93.20;;;;;;5078681;28;20115;-74
2023/06/28 11:53:25;;;;;;;2.30;1.33;;;29.00;91.70;;;;;;5079255;28;20024;-74
2023/06/28 11:55:52;;;;;;;6.25;2.03;;;29.70;90.50;;;;;;5079067;28;20024;-74
2023/06/28 11:58:35;;;;;;;2.63;1.35;;;30.20;86.70;;;;;;5079341;28;20021;-73
2023/06/28 12:01:02;;;;;;;2.70;1.38;;;30.20;83.00;;;;;;5078364;28;20028;-74
2023/06/28 12:03:38;;;;;;;3.08;1.50;;;30.20;83.60;;;;;;5077522;28;20036;-74
2023/06/28 12:06:06;;;;;;;4.88;1.45;;;29.80;84.70;;;;;;5078164;28;20066;-74
2023/06/28 12:08:33;;;;;;;3.10;1.38;;;29.40;83.30;;;;;;5079121;28;20053;-74
2023/06/28 12:11:00;;;;;;;2.38;1.50;;;30.00;78.80;;;;;;5078181;28;20027;-74
2023/06/28 12:13:27;;;;;;;4.85;1.85;;;30.00;78.80;;;;;;5078553;28;20024;-75
2023/06/28 12:15:54;;;;;;;3.78;1.88;;;30.10;78.30;;;;;;5078895;28;20077;-74
2023/06/28 12:18:19;;;;;;;2.70;1.70;;;29.70;78.30;;;;;;5078102;28;20112;-74
2023/06/28 12:20:45;;;;;;;4.60;1.33;;;29.20;77.10;;;;;;5078219;28;20064;-75
2023/06/28 12:23:12;;;;;;;3.28;2.08;;;27.80;79.30;;;;;;5077916;28;20043;-74
2023/06/28 12:25:44;;;;;;;2.80;1.48;;;26.80;83.40;;;;;;5078495;28;20148;-75
2023/06/28 12:28:14;;;;;;;2.50;1.50;;;26.40;84.80;;;;;;5078180;28;20020;-75
2023/06/28 12:30:40;;;;;;;2.58;1.40;;;26.70;84.80;;;;;;5078573;28;20055;-73
2023/06/28 12:33:07;;;;;;;4.15;1.38;;;26.90;84.60;;;;;;5077945;28;20028;-72
2023/06/28 12:35:33;;;;;;;2.83;1.52;;;26.90;83.50;;;;;;5077873;28;20056;-73
2023/06/28 12:38:01;;;;;;;3.72;1.42;;;27.00;83.60;;;;;;5077681;28;20062;-74
2023/06/28 12:40:28;;;;;;;2.03;1.42;;;27.20;85.80;;;;;;5077627;28;20024;-74
2023/06/28 12:43:14;;;;;;;4.10;1.40;;;27.20;84.80;;;;;;5077958;28;20116;-75